Johnny James — WYT8450 — position and weather

sailwx.info

Track history (hours):
 
Tides and Currents Weather Stations Pressure Air Temp Water Temp Dewpoint Dewpoint Depression Visibility Wind Speed Wind Dir Waves Ship Positions

Johnny James

Owner: CALLAIS & SONS INC, CUT OFF, LA. More information available from US FCC via Universal Licensing System and Coast Guard Vessel Documentation Center.

Last reported at 2017-Oct-18 12:48 UTC. Time now 2017-Oct-19 18:04 UTC.
Position N 29°45' W 095°06'.

Length 112 m; draft 3 m.

Type: . MMSI: 367005220.

Date/timePositionNaut miles runAvg speedWind from/ knotsBaromVisibWave heightAir tempDewpointWater temp
2017-Oct-18 12:48N 29°45' W 095°06'0 0.0
2017-Oct-18 12:29N 29°45' W 095°06'0 0.0
2017-Oct-18 11:53N 29°45' W 095°06'0 0.0
2017-Oct-18 11:26N 29°45' W 095°06'0 0.0
2017-Oct-18 10:59N 29°45' W 095°06'0 0.0
2017-Oct-18 10:17N 29°45' W 095°06'0 0.0
2017-Oct-18 09:58N 29°45' W 095°06'0 0.0
2017-Oct-18 09:30N 29°45' W 095°06'0 0.0
2017-Oct-18 06:24N 29°46' W 095°06'0 0.0
2017-Oct-18 05:59N 29°46' W 095°06'0 0.0
2017-Oct-18 05:30N 29°46' W 095°06'0 0.0
2017-Oct-18 05:00N 29°46' W 095°06'1 0.1
2017-Oct-17 10:38N 29°45' W 095°06'0 0.1
2017-Oct-17 10:23N 29°45' W 095°06'0 0.7
2017-Oct-17 09:59N 29°45' W 095°06'1 0.4
2017-Oct-17 07:18N 29°46' W 095°05'1 0.4
2017-Oct-17 04:45N 29°46' W 095°04'1 3.6
2017-Oct-17 04:30N 29°45' W 095°04'3 3.5
2017-Oct-17 03:44N 29°43' W 095°01'1 2.4
2017-Oct-17 03:13N 29°42' W 095°02'1 3.4
2017-Oct-17 02:58N 29°43' W 095°03'0 0.3
2017-Oct-17 02:21N 29°43' W 095°03'0 0.0
2017-Oct-17 02:00N 29°43' W 095°03'0 0.0
2017-Oct-17 01:22N 29°43' W 095°03'0 0.0
2017-Oct-17 00:59N 29°43' W 095°03'0 0.0
2017-Oct-17 00:25N 29°43' W 095°03'0 0.0
2017-Oct-16 14:46N 29°43' W 095°03'2 2.0
2017-Oct-16 13:52N 29°42' W 095°01'5 0.2
2017-Oct-15 16:48N 29°45' W 095°06'2 0.3
2017-Oct-15 08:15N 29°45' W 095°04'2 2.8
2017-Oct-15 07:22N 29°43' W 095°01'2 4.9
2017-Oct-15 06:56N 29°44' W 095°03'1 0.1
2017-Oct-14 20:40N 29°45' W 095°04'1 4.0
2017-Oct-14 20:29N 29°44' W 095°03'2 3.9
2017-Oct-14 20:00N 29°44' W 095°01'2 3.4
2017-Oct-14 19:30N 29°42' W 095°00'2 3.7
2017-Oct-14 19:01N 29°41' W 094°59'2 3.6
2017-Oct-14 18:31N 29°39' W 094°58'2 3.6
2017-Oct-14 18:00N 29°37' W 094°58'2 3.2
2017-Oct-14 17:31N 29°37' W 094°59'2 3.8
2017-Oct-14 17:01N 29°37' W 095°01'0 0.3
2017-Oct-14 16:31N 29°37' W 095°01'0 0.0
2017-Oct-14 16:01N 29°37' W 095°01'0 0.0
2017-Oct-14 15:31N 29°37' W 095°01'0 0.0
2017-Oct-14 15:01N 29°37' W 095°01'0 0.0
2017-Oct-14 14:31N 29°37' W 095°01'0 0.0
2017-Oct-14 14:01N 29°37' W 095°01'0 0.0
2017-Oct-14 13:31N 29°37' W 095°01'0 0.0
2017-Oct-14 13:01N 29°37' W 095°01'0 0.0
2017-Oct-14 12:30N 29°37' W 095°01'0 0.0
2017-Oct-14 12:01N 29°37' W 095°01'0 0.0
2017-Oct-14 11:31N 29°37' W 095°01'0 0.0
2017-Oct-14 11:01N 29°37' W 095°01'0 0.0
2017-Oct-14 10:31N 29°37' W 095°01'0 0.0
2017-Oct-14 10:01N 29°37' W 095°01'0 0.0
2017-Oct-14 09:31N 29°37' W 095°01'0 0.0
2017-Oct-14 09:01N 29°37' W 095°01'0 0.0
2017-Oct-14 08:31N 29°37' W 095°01'0 0.1
2017-Oct-14 08:01N 29°36' W 095°01'0 0.0
2017-Oct-14 07:31N 29°36' W 095°01'0 0.0
2017-Oct-14 07:00N 29°36' W 095°01'0 0.0
2017-Oct-14 06:31N 29°36' W 095°01'0 0.0
2017-Oct-14 06:01N 29°36' W 095°01'0 0.0
2017-Oct-14 05:31N 29°36' W 095°01'0 0.1
2017-Oct-14 05:01N 29°37' W 095°01'0 0.0
2017-Oct-14 04:31N 29°37' W 095°01'0 0.0
2017-Oct-14 04:00N 29°37' W 095°01'0 0.0
2017-Oct-14 03:31N 29°37' W 095°01'0 0.5
2017-Oct-14 03:01N 29°37' W 095°01'2 4.0
2017-Oct-14 02:31N 29°37' W 094°59'2 4.0
2017-Oct-14 02:00N 29°39' W 094°58'4 6.3
2017-Oct-14 01:21N 29°42' W 095°01'3 1.3
2017-Oct-13 22:48N 29°44' W 095°04'1 2.3
2017-Oct-13 22:30N 29°44' W 095°03'0 0.1
2017-Oct-13 21:35N 29°44' W 095°03'0 5.8
2017-Oct-13 21:30N 29°44' W 095°03'2 0.2
2017-Oct-13 08:41N 29°46' W 095°05'1 5.8
2017-Oct-13 08:28N 29°45' W 095°04'2 0.1
2017-Oct-12 14:09N 29°44' W 095°03'0 0.3
2017-Oct-12 13:48N 29°44' W 095°03'0 1.1
2017-Oct-12 13:27N 29°44' W 095°03'2 3.9
2017-Oct-12 12:53N 29°45' W 095°06'0 0.1
2017-Oct-12 12:30N 29°45' W 095°06'0 0.1
2017-Oct-12 08:12N 29°46' W 095°05'2 0.5
2017-Oct-12 05:00N 29°47' W 095°04'2 1.1
2017-Oct-12 03:34N 29°46' W 095°05'2 6.1
2017-Oct-12 03:10N 29°44' W 095°07'1 7.3
2017-Oct-12 03:00N 29°44' W 095°09'4 6.2
2017-Oct-12 02:24N 29°44' W 095°13'2 5.6
2017-Oct-12 02:00N 29°44' W 095°15'1 2.2
2017-Oct-12 01:30N 29°44' W 095°17'0 0.0
2017-Oct-12 01:00N 29°44' W 095°17'0 0.0
2017-Oct-12 00:27N 29°44' W 095°17'0 0.0
2017-Oct-12 00:00N 29°44' W 095°17'0 0.6
2017-Oct-11 23:30N 29°43' W 095°16'2 2.4
2017-Oct-11 22:28N 29°44' W 095°13'3 2.8
2017-Oct-11 21:21N 29°45' W 095°10'5 2.3
2017-Oct-11 19:01N 29°45' W 095°04'0 6.9
2017-Oct-11 18:58N 29°45' W 095°04'1 2.3
2017-Oct-11 18:30N 29°44' W 095°03'  
2017-Oct-08 13:56N 29°45' W 095°06'0 0.0
2017-Oct-08 13:26N 29°45' W 095°06'0 0.0
2017-Oct-08 13:00N 29°45' W 095°06'  
Track history (hours):
 
Tides and Currents Weather Stations Pressure Air Temp Water Temp Dewpoint Dewpoint Depression Visibility Wind Speed Wind Dir Waves Ship Positions

Johnny James

Owner: CALLAIS & SONS INC, CUT OFF, LA. More information available from US FCC via Universal Licensing System and Coast Guard Vessel Documentation Center.

Last reported at 2017-Oct-18 12:48 UTC. Time now 2017-Oct-19 18:04 UTC.
Position N 29°45' W 095°06'.

Length 112 m; draft 3 m.

Type: . MMSI: 367005220.

Date/timePositionNaut miles runAvg speedWind from/ knotsBaromVisibWave heightAir tempDewpointWater temp
2017-Oct-18 12:48N 29°45' W 095°06'0 0.0
2017-Oct-18 12:29N 29°45' W 095°06'0 0.0
2017-Oct-18 11:53N 29°45' W 095°06'0 0.0
2017-Oct-18 11:26N 29°45' W 095°06'0 0.0
2017-Oct-18 10:59N 29°45' W 095°06'0 0.0
2017-Oct-18 10:17N 29°45' W 095°06'0 0.0
2017-Oct-18 09:58N 29°45' W 095°06'0 0.0
2017-Oct-18 09:30N 29°45' W 095°06'0 0.0
2017-Oct-18 06:24N 29°46' W 095°06'0 0.0
2017-Oct-18 05:59N 29°46' W 095°06'0 0.0
2017-Oct-18 05:30N 29°46' W 095°06'0 0.0
2017-Oct-18 05:00N 29°46' W 095°06'1 0.1
2017-Oct-17 10:38N 29°45' W 095°06'0 0.1
2017-Oct-17 10:23N 29°45' W 095°06'0 0.7
2017-Oct-17 09:59N 29°45' W 095°06'1 0.4
2017-Oct-17 07:18N 29°46' W 095°05'1 0.4
2017-Oct-17 04:45N 29°46' W 095°04'1 3.6
2017-Oct-17 04:30N 29°45' W 095°04'3 3.5
2017-Oct-17 03:44N 29°43' W 095°01'1 2.4
2017-Oct-17 03:13N 29°42' W 095°02'1 3.4
2017-Oct-17 02:58N 29°43' W 095°03'0 0.3
2017-Oct-17 02:21N 29°43' W 095°03'0 0.0
2017-Oct-17 02:00N 29°43' W 095°03'0 0.0
2017-Oct-17 01:22N 29°43' W 095°03'0 0.0
2017-Oct-17 00:59N 29°43' W 095°03'0 0.0
2017-Oct-17 00:25N 29°43' W 095°03'0 0.0
2017-Oct-16 14:46N 29°43' W 095°03'2 2.0
2017-Oct-16 13:52N 29°42' W 095°01'5 0.2
2017-Oct-15 16:48N 29°45' W 095°06'2 0.3
2017-Oct-15 08:15N 29°45' W 095°04'2 2.8
2017-Oct-15 07:22N 29°43' W 095°01'2 4.9
2017-Oct-15 06:56N 29°44' W 095°03'1 0.1
2017-Oct-14 20:40N 29°45' W 095°04'1 4.0
2017-Oct-14 20:29N 29°44' W 095°03'2 3.9
2017-Oct-14 20:00N 29°44' W 095°01'2 3.4
2017-Oct-14 19:30N 29°42' W 095°00'2 3.7
2017-Oct-14 19:01N 29°41' W 094°59'2 3.6
2017-Oct-14 18:31N 29°39' W 094°58'2 3.6
2017-Oct-14 18:00N 29°37' W 094°58'2 3.2
2017-Oct-14 17:31N 29°37' W 094°59'2 3.8
2017-Oct-14 17:01N 29°37' W 095°01'0 0.3
2017-Oct-14 16:31N 29°37' W 095°01'0 0.0
2017-Oct-14 16:01N 29°37' W 095°01'0 0.0
2017-Oct-14 15:31N 29°37' W 095°01'0 0.0
2017-Oct-14 15:01N 29°37' W 095°01'0 0.0
2017-Oct-14 14:31N 29°37' W 095°01'0 0.0
2017-Oct-14 14:01N 29°37' W 095°01'0 0.0
2017-Oct-14 13:31N 29°37' W 095°01'0 0.0
2017-Oct-14 13:01N 29°37' W 095°01'0 0.0
2017-Oct-14 12:30N 29°37' W 095°01'0 0.0
2017-Oct-14 12:01N 29°37' W 095°01'0 0.0
2017-Oct-14 11:31N 29°37' W 095°01'0 0.0
2017-Oct-14 11:01N 29°37' W 095°01'0 0.0
2017-Oct-14 10:31N 29°37' W 095°01'0 0.0
2017-Oct-14 10:01N 29°37' W 095°01'0 0.0
2017-Oct-14 09:31N 29°37' W 095°01'0 0.0
2017-Oct-14 09:01N 29°37' W 095°01'0 0.0
2017-Oct-14 08:31N 29°37' W 095°01'0 0.1
2017-Oct-14 08:01N 29°36' W 095°01'0 0.0
2017-Oct-14 07:31N 29°36' W 095°01'0 0.0
2017-Oct-14 07:00N 29°36' W 095°01'0 0.0
2017-Oct-14 06:31N 29°36' W 095°01'0 0.0
2017-Oct-14 06:01N 29°36' W 095°01'0 0.0
2017-Oct-14 05:31N 29°36' W 095°01'0 0.1
2017-Oct-14 05:01N 29°37' W 095°01'0 0.0
2017-Oct-14 04:31N 29°37' W 095°01'0 0.0
2017-Oct-14 04:00N 29°37' W 095°01'0 0.0
2017-Oct-14 03:31N 29°37' W 095°01'0 0.5
2017-Oct-14 03:01N 29°37' W 095°01'2 4.0
2017-Oct-14 02:31N 29°37' W 094°59'2 4.0
2017-Oct-14 02:00N 29°39' W 094°58'4 6.3
2017-Oct-14 01:21N 29°42' W 095°01'3 1.3
2017-Oct-13 22:48N 29°44' W 095°04'1 2.3
2017-Oct-13 22:30N 29°44' W 095°03'0 0.1
2017-Oct-13 21:35N 29°44' W 095°03'0 5.8
2017-Oct-13 21:30N 29°44' W 095°03'2 0.2
2017-Oct-13 08:41N 29°46' W 095°05'1 5.8
2017-Oct-13 08:28N 29°45' W 095°04'2 0.1
2017-Oct-12 14:09N 29°44' W 095°03'0 0.3
2017-Oct-12 13:48N 29°44' W 095°03'0 1.1
2017-Oct-12 13:27N 29°44' W 095°03'2 3.9
2017-Oct-12 12:53N 29°45' W 095°06'0 0.1
2017-Oct-12 12:30N 29°45' W 095°06'0 0.1
2017-Oct-12 08:12N 29°46' W 095°05'2 0.5
2017-Oct-12 05:00N 29°47' W 095°04'2 1.1
2017-Oct-12 03:34N 29°46' W 095°05'2 6.1
2017-Oct-12 03:10N 29°44' W 095°07'1 7.3
2017-Oct-12 03:00N 29°44' W 095°09'4 6.2
2017-Oct-12 02:24N 29°44' W 095°13'2 5.6
2017-Oct-12 02:00N 29°44' W 095°15'1 2.2
2017-Oct-12 01:30N 29°44' W 095°17'0 0.0
2017-Oct-12 01:00N 29°44' W 095°17'0 0.0
2017-Oct-12 00:27N 29°44' W 095°17'0 0.0
2017-Oct-12 00:00N 29°44' W 095°17'0 0.6
2017-Oct-11 23:30N 29°43' W 095°16'2 2.4
2017-Oct-11 22:28N 29°44' W 095°13'3 2.8
2017-Oct-11 21:21N 29°45' W 095°10'5 2.3
2017-Oct-11 19:01N 29°45' W 095°04'0 6.9
2017-Oct-11 18:58N 29°45' W 095°04'1 2.3
2017-Oct-11 18:30N 29°44' W 095°03'  
2017-Oct-08 13:56N 29°45' W 095°06'0 0.0
2017-Oct-08 13:26N 29°45' W 095°06'0 0.0
2017-Oct-08 13:00N 29°45' W 095°06'  

Dump ship's entire track history